• Join FlightAware (Why Join?)
  • Login
  • US Flag 
08:10AM EDT


 

Airport Tracker/Info


-or-


 

Live Flight TrackerFlight Track Log ✈ UPS492 ✈ 29-Jun-2013 ✈ KSDF - KFSD

Flight Track Log - Related Links

Times and Time Zones

All times are in EDT time to prevent confusion due to time zone crossing. See the UPS492 flight status page for this flight to view local times or setup timezone preferences in your user account.

Time Position Orientation Groundspeed Altitude Reporting Facility
EDT Latitude Longitude Course Direction KTS MPH feet Rate Location/Type
05:22AM 38.1710 -85.7420 345° North 20 23  Level FlightAware
05:22AM 38.1730 -85.7430 339° North 22 25 300 Level FlightAware
05:23AM 38.1760 -85.7440 345° North 24 28 360 Level FlightAware
05:23AM 38.1800 -85.7450 349° North 25 29 360 Level FlightAware
05:24AM 38.1830 -85.7460 345° North 16 18 480 Level FlightAware
05:24AM 38.1850 -85.7470 339° North 20 23 540 Level FlightAware
05:25AM 38.1840 -85.7480 218° Southwest 23 26 780 Level FlightAware
05:26AM 38.1810 -85.7470 165° South 88 101 1,020 Level FlightAware
05:26AM 38.1590 -85.7390 164° South 179 206 1,500 3,120 Climbing FlightAware
05:26AM 38.1480 -85.7380 176° South 186 214 2,200 2,700 Climbing FlightAware
05:27AM 38.1230 -85.7390 182° South 218 251 3,300 1,380 Climbing FlightAware
05:27AM 38.1136 -85.7389 307° West 208 239 3,200 1,680 Descending Indianapolis Center
05:27AM 38.0910 -85.7400 181° South 266 306 4,100 3,540 Climbing FlightAware
05:28AM 38.0550 -85.7420 183° South 280 322 5,700 3,660 Climbing FlightAware
05:28AM 38.0360 -85.7490 196° South 273 314 6,800 2,280 Climbing FlightAware
05:28AM 38.0383 -85.7464 184° South 254 292 6,400 3,480 Descending Indianapolis Center
05:28AM 38.0240 -85.7610 218° Southwest 269 310 7,500 4,800 Climbing FlightAware
05:29AM 38.0140 -85.7810 238° Southwest 265 305 8,500 3,900 Climbing FlightAware
05:29AM 38.0120 -85.7960 260° West 264 304 9,200 2,040 Climbing FlightAware
05:29AM 38.0175 -85.8275 252° West 272 313 9,700 2,160 Climbing Indianapolis Center
05:29AM 38.0280 -85.8380 296° West 281 323 10,300 1,500 Climbing FlightAware
05:30AM 38.0872 -85.8953 323° Northwest 318 366 11,200 1,860 Climbing Indianapolis Center
05:31AM 38.1528 -85.9942 310° West 361 415 14,000 2,760 Climbing Indianapolis Center
05:32AM 38.1659 -86.0676 307° West  Level Estimated
05:32AM 38.2164 -86.1019 307° West 377 434 16,800  Level Indianapolis Center
05:33AM 38.2842 -86.2117 308° West 391 450 19,600 2,700 Climbing Indianapolis Center
05:34AM 38.3522 -86.3253 307° West 400 460 22,400 2,280 Climbing Indianapolis Center
05:35AM 38.4208 -86.4394 308° West 405 466 24,300 1,920 Climbing Indianapolis Center
05:36AM 38.4933 -86.5586 308° West 421 484 26,300 1,980 Climbing Indianapolis Center
05:37AM 38.5644 -86.6789 307° West 426 490 28,300 540 Climbing Indianapolis Center
05:43AM 38.9690 -87.3620 307° West 415 478 30,000 240 Climbing FlightAware
05:44AM 39.0160 -87.4410 307° West 416 479 30,000  Level FlightAware
05:44AM 39.0630 -87.5230 306° West 418 481 30,000  Level FlightAware
05:45AM 39.1110 -87.6050 307° West 428 493 30,000  Level FlightAware
05:46AM 39.1560 -87.6830 307° West 431 496 30,000  Level FlightAware
05:46AM 39.2160 -87.7880 306° West 425 489 30,000  Level FlightAware
05:47AM 39.2630 -87.8670 308° West 423 487 30,000  Level FlightAware
05:48AM 39.3150 -87.9580 306° West 423 487 30,000  Level FlightAware
05:48AM 39.3610 -88.0380 307° West 425 489 30,000  Level FlightAware
05:49AM 39.3970 -88.1010 306° West 427 491 30,000  Level FlightAware
05:50AM 39.4600 -88.2120 306° West 428 493 30,000  Level FlightAware
05:51AM 39.5070 -88.2930 307° West 428 493 30,000  Level FlightAware
05:52AM 39.5840 -88.4280 307° West 425 489 30,000  Level FlightAware
05:52AM 39.6360 -88.5210 306° West 425 489 30,000  Level FlightAware
05:53AM 39.6860 -88.6080 307° West 426 490 30,000  Level FlightAware
05:54AM 39.7760 -88.7700 306° West 431 496 30,000  Level FlightAware
05:55AM 39.8500 -88.9030 306° West 431 496 30,000  Level FlightAware
06:00AM 40.1590 -89.4620 306° West 426 490 30,000  Level FlightAware
06:01AM 40.2050 -89.5460 306° West 420 483 30,000  Level FlightAware
06:01AM 40.2580 -89.6430 306° West 418 481 30,000  Level FlightAware
06:02AM 40.3010 -89.7230 305° West 417 480 30,000  Level FlightAware
06:03AM 40.3460 -89.8050 306° West 414 476 30,000  Level FlightAware
06:03AM 40.3940 -89.8930 306° West 415 478 30,000  Level FlightAware
06:04AM 40.4450 -89.9880 305° West 417 480 30,000  Level FlightAware
06:05AM 40.4840 -90.0580 306° West 417 480 30,000  Level FlightAware
06:05AM 40.5300 -90.1450 305° West 415 478 30,000  Level FlightAware
06:06AM 40.5740 -90.2270 305° West 412 474 30,000  Level FlightAware
06:07AM 40.6270 -90.3260 305° West 413 475 30,000  Level FlightAware
06:08AM 40.6750 -90.4150 305° West 414 476 30,000  Level FlightAware
06:08AM 40.7230 -90.5080 304° West 416 479 30,000  Level FlightAware
06:09AM 40.7670 -90.5900 305° West 418 481 30,000  Level FlightAware
06:10AM 40.8250 -90.7000 305° West 416 479 30,000  Level FlightAware
06:11AM 40.9010 -90.8440 305° West 413 475 30,000  Level FlightAware
06:12AM 40.9510 -90.9390 305° West 411 473 30,000  Level FlightAware
06:13AM 40.9940 -91.0220 304° West 410 472 30,000  Level FlightAware
06:13AM 41.0420 -91.1130 305° West 409 471 30,000  Level FlightAware
06:14AM 41.0850 -91.1980 304° West 410 472 30,000  Level FlightAware
06:15AM 41.1258 -91.2789 304° West 411 473 30,000  Level Chicago Center
06:16AM 41.1897 -91.4017 305° West 406 467 30,000  Level Chicago Center
06:17AM 41.2603 -91.5397 304° West 402 463 30,000  Level Chicago Center
06:18AM 41.3231 -91.6600 305° West 400 460 30,000  Level Chicago Center
06:19AM 41.3844 -91.7825 304° West 401 461 30,000  Level Chicago Center
06:24AM 41.7050 -92.4160 304° West 389 448 30,000  Level FlightAware
06:25AM 41.7860 -92.5800 304° West 386 444 30,000  Level FlightAware
06:26AM 41.8240 -92.6600 303° West 384 442 30,000  Level FlightAware
06:27AM 41.8660 -92.7430 304° West 383 441 30,000  Level FlightAware
06:27AM 41.9060 -92.8260 303° West 382 440 30,000  Level FlightAware
06:28AM 41.9480 -92.9090 304° West 381 438 30,000  Level FlightAware
06:29AM 42.0020 -93.0200 303° West 379 436 30,000  Level FlightAware
06:30AM 42.0510 -93.1200 303° West 378 435 30,000  Level FlightAware
06:31AM 42.1040 -93.2290 303° West 379 436 30,000  Level FlightAware
06:32AM 42.1600 -93.3440 303° West 381 438 30,000  Level FlightAware
06:33AM 42.2100 -93.4500 303° West 379 436 30,000  Level FlightAware
06:37AM 42.4370 -93.9250 303° West 378 435 30,000  Level FlightAware
06:37AM 42.4810 -94.0170 303° West 378 435 30,000  Level FlightAware
06:38AM 42.5066 -94.0711 303° West 378 435 30,000  Level FlightAware ADS-B
06:38AM 42.5355 -94.1330 302° West 377 434 30,000  Level FlightAware ADS-B
06:39AM 42.5831 -94.2347 302° West 377 434 30,000  Level FlightAware ADS-B
06:40AM 42.6121 -94.2969 302° West 379 436 30,000  Level FlightAware ADS-B
06:40AM 42.6199 -94.3153 300° West 380 437 30,000  Level FlightAware ADS-B
06:41AM 42.7001 -94.5091 299° West 380 437 30,000  Level FlightAware ADS-B
06:42AM 42.7259 -94.5718 299° West 380 437 30,000  Level FlightAware ADS-B
06:42AM 42.7529 -94.6385 299° West 380 437 30,000  Level FlightAware ADS-B
06:43AM 42.7790 -94.7032 299° West 380 437 30,000  Level FlightAware ADS-B
06:43AM 42.8053 -94.7678 299° West 379 436 30,000  Level FlightAware ADS-B
06:44AM 42.8317 -94.8325 299° West 379 436 30,000  Level FlightAware ADS-B
06:44AM 42.8577 -94.8952 300° West 379 436 30,000 -240 Level FlightAware ADS-B
06:46AM 42.9125 -95.0317 299° West 379 436 29,700 -780 Descending FlightAware ADS-B
06:46AM 42.9488 -95.1222 299° West 380 437 28,600 -1,500 Descending FlightAware ADS-B
06:47AM 42.9747 -95.1873 299° West 380 437 27,900 -1,500 Descending FlightAware ADS-B
06:47AM 43.0027 -95.2570 299° West 382 440 27,000 -1,620 Descending FlightAware ADS-B
06:48AM 43.0294 -95.3215 300° West 394 453 26,200 -1,500 Descending FlightAware ADS-B
06:48AM 43.0562 -95.3897 298° West 401 461 25,500 -1,500 Descending FlightAware ADS-B
06:49AM 43.0835 -95.4565 299° West 401 461 24,700 -1,620 Descending FlightAware ADS-B
06:50AM 43.1234 -95.5586 298° West 396 456 23,500 -1,500 Descending FlightAware ADS-B
06:50AM 43.1499 -95.6253 299° West 399 459 22,800 -1,500 Descending FlightAware ADS-B
06:51AM 43.1760 -95.6919 298° West 395 455 22,000 -2,220 Descending FlightAware ADS-B
06:51AM 43.2016 -95.7588 298° West 381 438 20,600 -2,760 Descending FlightAware ADS-B
06:52AM 43.2267 -95.8213 299° West 369 425 19,200 -2,700 Descending FlightAware ADS-B
06:54AM 43.3217 -96.0924 296° West 345 397 13,200 -2,820 Descending FlightAware ADS-B
06:54AM 43.3374 -96.1578 288° West 331 381 11,400 -2,220 Descending FlightAware ADS-B
06:55AM 43.3500 -96.2103 288° West 343 395 10,800 -1,440 Descending Minneapolis Center
06:56AM 43.3747 -96.3125 288° West 312 359 9,200 -1,620 Descending Minneapolis Center
06:57AM 43.3964 -96.4042 288° West 276 318 7,600 -1,560 Descending Minneapolis Center
06:58AM 43.4169 -96.4967 287° West 264 304 6,100 -1,500 Descending Minneapolis Center
06:59AM 43.4383 -96.5878 288° West 257 296 4,600 -1,080 Descending Minneapolis Center
07:00AM 43.4578 -96.6719 288° West 248 285 4,000 -600 Descending Minneapolis Center
07:01AM 43.4706 -96.7292 287° West 201 231 3,400 -360 Descending Minneapolis Center
07:02AM 43.4875 -96.7967 289° West 171 197 3,300 -300 Descending Minneapolis Center
07:03AM 43.5133 -96.8092 341° North 135 155 2,800 -540 Descending Minneapolis Center
07:04AM 43.5403 -96.7867 31° Northeast 121 139 2,200 -480 Descending Minneapolis Center
07:05AM 43.5700 -96.7583 35° Northeast 118 136 1,800 -420 Descending Minneapolis Center
07:07AM 43.5667 -96.7333 36° Northeast  Level FlightAware Approximate